createdAt,value
2022-09-15T02:45:05.546Z,0.00
2022-09-15T02:46:05.718Z,0.00
2022-09-15T02:47:05.518Z,0.00
2022-09-15T02:48:05.632Z,0.00
2022-09-15T02:49:05.740Z,0.00
2022-09-15T02:50:05.566Z,0.00
2022-09-15T02:51:05.486Z,0.00
2022-09-15T02:52:05.605Z,0.00
2022-09-15T02:53:05.537Z,0.00
2022-09-15T02:54:05.545Z,0.00
2022-09-15T02:55:06.895Z,0.00
2022-09-15T02:56:06.645Z,0.00
2022-09-15T02:57:06.858Z,0.00
2022-09-15T02:58:06.969Z,0.00
2022-09-15T02:59:07.008Z,0.00
2022-09-15T03:00:07.131Z,0.00
2022-09-15T03:01:06.910Z,0.00
2022-09-15T03:02:06.708Z,0.00
2022-09-15T03:03:06.661Z,0.00
2022-09-15T03:04:06.613Z,0.00
2022-09-15T03:05:08.072Z,0.00
2022-09-15T03:06:06.622Z,0.00
2022-09-15T03:07:07.123Z,0.00
2022-09-15T03:08:06.601Z,0.00
2022-09-15T03:09:07.682Z,0.00
2022-09-15T03:10:06.636Z,0.00
2022-09-15T03:11:07.086Z,0.00
2022-09-15T03:12:07.581Z,0.00
2022-09-15T03:13:06.551Z,0.00
2022-09-15T03:14:06.996Z,0.00
2022-09-15T03:15:06.675Z,0.00
2022-09-15T03:16:06.643Z,0.00
2022-09-15T03:17:06.492Z,0.00
2022-09-15T03:18:06.569Z,0.00
2022-09-15T03:19:06.708Z,0.00
2022-09-15T03:20:07.425Z,0.00
2022-09-15T03:21:06.466Z,0.00
2022-09-15T03:22:06.474Z,0.00
2022-09-15T03:23:06.562Z,0.00
2022-09-15T03:24:06.375Z,0.00
2022-09-15T03:25:06.430Z,0.00
2022-09-15T03:26:06.552Z,0.00
2022-09-15T03:27:06.367Z,0.00
2022-09-15T03:28:06.336Z,0.00
2022-09-15T03:29:06.419Z,0.00
2022-09-15T03:30:06.360Z,0.00
2022-09-15T03:31:06.447Z,0.00
2022-09-15T03:32:06.347Z,0.00
2022-09-15T03:33:07.392Z,0.00
2022-09-15T03:34:06.306Z,0.00
2022-09-15T03:35:06.284Z,0.00
2022-09-15T03:36:06.438Z,0.00
2022-09-15T03:37:07.123Z,0.00
2022-09-15T03:38:06.539Z,0.00
2022-09-15T03:39:06.319Z,0.00
2022-09-15T03:40:07.021Z,0.00
2022-09-15T03:41:06.326Z,0.00
2022-09-15T03:42:06.367Z,0.00
2022-09-15T03:43:06.902Z,0.00
2022-09-15T03:44:06.885Z,0.00
2022-09-15T03:45:06.253Z,0.00
2022-09-15T03:46:07.598Z,0.00
2022-09-15T03:47:06.182Z,0.00
2022-09-15T03:48:06.668Z,0.00
2022-09-15T03:49:06.284Z,0.00
2022-09-15T03:50:06.602Z,0.00
2022-09-15T03:51:06.559Z,0.00
2022-09-15T03:52:06.932Z,0.00
2022-09-15T03:53:06.279Z,0.00
2022-09-15T03:54:06.093Z,0.00
2022-09-15T03:55:06.076Z,0.00
2022-09-15T03:56:06.856Z,0.00
2022-09-15T03:57:06.052Z,0.00
2022-09-15T03:58:06.278Z,0.00
2022-09-15T03:59:06.105Z,0.00
2022-09-15T04:00:06.009Z,0.00
2022-09-15T04:01:06.070Z,0.00
2022-09-15T04:02:05.981Z,0.00
2022-09-15T04:03:06.065Z,0.00
2022-09-15T04:04:05.958Z,0.00
2022-09-15T04:05:06.247Z,0.00
2022-09-15T04:06:05.967Z,0.00
2022-09-15T04:07:06.007Z,0.00
2022-09-15T04:08:05.959Z,0.00
2022-09-15T04:09:05.934Z,0.00
2022-09-15T04:10:05.870Z,0.00
2022-09-15T04:11:05.901Z,0.00
2022-09-15T04:12:05.986Z,0.00
2022-09-15T04:13:05.868Z,0.00
2022-09-15T04:14:05.929Z,0.00
2022-09-15T04:15:05.860Z,0.00
2022-09-15T04:16:06.060Z,0.00
2022-09-15T04:17:06.754Z,0.00
2022-09-15T04:18:05.857Z,0.00
2022-09-15T04:19:05.942Z,0.00
2022-09-15T04:20:05.786Z,0.00
2022-09-15T04:21:05.803Z,0.00
2022-09-15T04:22:05.798Z,0.00
2022-09-15T04:23:05.793Z,0.00
2022-09-15T04:24:05.851Z,0.00
2022-09-15T04:25:05.775Z,0.00
2022-09-15T04:26:05.755Z,0.00
2022-09-15T04:27:05.852Z,0.00
2022-09-15T04:28:05.863Z,0.00
2022-09-15T04:29:05.793Z,0.00
2022-09-15T04:30:05.755Z,0.00
2022-09-15T04:31:05.795Z,0.00
2022-09-15T04:32:05.738Z,0.00
2022-09-15T04:33:05.715Z,4.00
2022-09-15T04:34:05.751Z,0.00
2022-09-15T04:35:06.287Z,4.00
2022-09-15T04:36:05.616Z,4.00
2022-09-15T04:37:05.770Z,4.00
2022-09-15T04:38:05.712Z,8.00
2022-09-15T04:39:05.726Z,8.00
2022-09-15T04:40:05.667Z,8.00
2022-09-15T04:41:05.683Z,8.00
2022-09-15T04:42:05.948Z,12.00
2022-09-15T04:43:05.812Z,12.00
2022-09-15T04:44:05.648Z,16.00
2022-09-15T04:45:05.630Z,16.00
2022-09-15T04:46:05.593Z,20.00
2022-09-15T04:47:05.689Z,24.00
2022-09-15T04:48:05.570Z,28.00
2022-09-15T04:49:06.385Z,28.00
2022-09-15T04:50:05.609Z,36.00
2022-09-15T04:51:05.579Z,40.00
2022-09-15T04:52:09.484Z,48.00
2022-09-15T04:53:06.653Z,52.00
2022-09-15T04:54:05.488Z,60.00
2022-09-15T04:55:05.431Z,68.00
2022-09-15T04:56:05.525Z,72.00
2022-09-15T04:57:05.372Z,80.00
2022-09-15T04:58:05.772Z,88.00
2022-09-15T04:59:05.577Z,92.00
2022-09-15T05:00:05.518Z,100.00
2022-09-15T05:01:05.575Z,108.00
2022-09-15T05:02:05.856Z,116.00
2022-09-15T05:03:08.620Z,120.00
2022-09-15T05:04:06.696Z,124.00
2022-09-15T05:05:05.580Z,124.00
2022-09-15T05:06:05.448Z,124.00
2022-09-15T05:07:05.435Z,128.00
2022-09-15T05:08:05.510Z,120.00
2022-09-15T05:09:09.748Z,116.00
2022-09-15T05:10:07.716Z,112.00
2022-09-15T05:11:05.706Z,120.00
2022-09-15T05:12:05.420Z,132.00
2022-09-15T05:13:05.262Z,140.00
2022-09-15T05:14:05.310Z,144.00
2022-09-15T05:15:05.565Z,152.00
2022-09-15T05:16:05.614Z,164.00
2022-09-15T05:17:05.596Z,176.00
2022-09-15T05:18:06.923Z,188.00
2022-09-15T05:19:06.639Z,212.00
2022-09-15T05:20:05.765Z,236.00
2022-09-15T05:21:06.128Z,268.00
2022-09-15T05:22:06.006Z,292.00
2022-09-15T05:23:05.340Z,320.00
2022-09-15T05:24:05.113Z,352.00
2022-09-15T05:25:05.735Z,368.00
2022-09-15T05:26:06.450Z,400.00
2022-09-15T05:27:05.651Z,432.00
2022-09-15T05:28:05.752Z,460.00
2022-09-15T05:29:05.306Z,476.00
2022-09-15T05:30:34.837Z,504.00
2022-09-15T05:31:07.196Z,524.00
2022-09-15T05:32:05.254Z,540.00
2022-09-15T05:33:05.214Z,560.00
2022-09-15T05:34:05.340Z,592.00
2022-09-15T05:35:05.354Z,612.00
2022-09-15T05:36:05.385Z,640.00
2022-09-15T05:37:05.135Z,660.00
2022-09-15T05:38:05.130Z,676.00
2022-09-15T05:39:05.170Z,688.00
2022-09-15T05:40:08.463Z,704.00
2022-09-15T05:41:06.202Z,720.00
2022-09-15T05:42:05.417Z,736.00
2022-09-15T05:43:05.117Z,752.00
2022-09-15T05:44:05.366Z,768.00
2022-09-15T05:45:05.098Z,780.00
2022-09-15T05:46:05.277Z,796.00
2022-09-15T05:47:05.277Z,812.00
2022-09-15T05:48:05.123Z,828.00
2022-09-15T05:49:05.162Z,852.00
2022-09-15T05:50:05.225Z,880.00
2022-09-15T05:51:05.174Z,904.00
2022-09-15T05:52:05.067Z,924.00
2022-09-15T05:53:05.303Z,940.00
2022-09-15T05:54:06.121Z,944.00
2022-09-15T05:55:05.101Z,932.00
2022-09-15T05:56:06.298Z,936.00
2022-09-15T05:57:05.127Z,944.00
2022-09-15T05:58:05.649Z,952.00
2022-09-15T05:59:05.319Z,960.00
2022-09-15T06:00:05.080Z,972.00
2022-09-15T06:01:05.301Z,988.00
2022-09-15T06:02:05.701Z,976.00
2022-09-15T06:03:06.910Z,972.00
2022-09-15T06:04:04.899Z,1004.00
2022-09-15T06:05:09.950Z,1036.00
2022-09-15T06:06:07.239Z,1064.00
2022-09-15T06:07:05.737Z,1084.00
2022-09-15T06:08:05.111Z,1116.00
2022-09-15T06:09:05.350Z,1136.00
2022-09-15T06:10:05.226Z,1172.00
2022-09-15T06:11:05.458Z,1204.00
2022-09-15T06:12:05.177Z,1260.00
2022-09-15T06:13:04.749Z,1316.00
2022-09-15T06:14:05.618Z,1336.00
2022-09-15T06:15:04.698Z,1360.00
2022-09-15T06:16:04.904Z,1384.00
2022-09-15T06:17:05.082Z,1412.00
2022-09-15T06:18:04.858Z,1448.00
2022-09-15T06:19:04.649Z,1480.00
2022-09-15T06:20:04.908Z,1504.00
2022-09-15T06:21:04.758Z,1532.00
2022-09-15T06:22:05.628Z,1552.00
2022-09-15T06:23:04.717Z,1544.00
2022-09-15T06:24:05.026Z,1556.00
2022-09-15T06:25:04.744Z,1572.00
2022-09-15T06:26:04.613Z,1584.00
2022-09-15T06:27:04.832Z,1588.00
2022-09-15T06:28:04.583Z,1580.00
2022-09-15T06:29:04.539Z,1612.00
2022-09-15T06:30:04.716Z,1540.00
2022-09-15T06:31:04.946Z,1516.00
2022-09-15T06:32:04.896Z,1572.00
2022-09-15T06:33:04.614Z,1488.00
2022-09-15T06:34:04.501Z,1480.00
2022-09-15T06:35:04.645Z,1640.00
2022-09-15T06:36:04.851Z,1540.00
2022-09-15T06:37:04.649Z,1428.00
2022-09-15T06:38:04.589Z,1416.00
2022-09-15T06:39:04.966Z,1416.00
2022-09-15T06:40:04.582Z,1416.00
2022-09-15T06:41:04.520Z,1392.00
2022-09-15T06:42:05.772Z,1352.00
2022-09-15T06:43:05.545Z,1344.00
2022-09-15T06:44:04.829Z,1360.00
2022-09-15T06:45:04.677Z,1348.00
2022-09-15T06:46:04.357Z,1344.00
2022-09-15T06:47:04.552Z,1372.00
2022-09-15T06:48:23.337Z,1460.00
2022-09-15T06:49:06.417Z,1548.00
2022-09-15T06:50:04.795Z,1656.00
2022-09-15T06:51:04.275Z,1728.00
2022-09-15T06:52:04.260Z,1792.00
2022-09-15T06:53:04.346Z,1892.00
2022-09-15T06:54:04.423Z,1888.00
2022-09-15T06:55:04.299Z,1916.00
2022-09-15T06:56:04.250Z,1924.00
2022-09-15T06:57:04.328Z,1924.00
2022-09-15T06:58:04.247Z,1960.00
2022-09-15T06:59:04.323Z,2024.00
2022-09-15T07:00:04.207Z,2088.00
2022-09-15T07:01:04.328Z,2124.00
2022-09-15T07:02:05.299Z,2156.00
2022-09-15T07:03:05.527Z,2200.00
2022-09-15T07:04:04.357Z,2232.00
2022-09-15T07:05:04.210Z,2248.00
2022-09-15T07:06:05.541Z,2188.00
2022-09-15T07:07:04.259Z,2124.00
2022-09-15T07:08:04.245Z,2120.00
2022-09-15T07:09:04.174Z,2144.00
2022-09-15T07:10:04.229Z,2168.00
2022-09-15T07:11:03.987Z,2176.00
2022-09-15T07:12:04.288Z,2248.00
2022-09-15T07:13:04.473Z,2316.00
2022-09-15T07:14:04.143Z,2344.00
2022-09-15T07:15:05.213Z,2340.00
2022-09-15T07:16:04.034Z,2340.00
2022-09-15T07:17:04.257Z,2320.00
2022-09-15T07:18:04.158Z,2324.00
2022-09-15T07:19:04.067Z,2312.00
2022-09-15T07:20:04.420Z,2304.00
2022-09-15T07:21:04.179Z,2300.00
2022-09-15T07:22:04.104Z,2316.00
2022-09-15T07:23:03.960Z,2344.00
2022-09-15T07:24:07.360Z,2416.00
2022-09-15T07:25:05.057Z,2532.00
2022-09-15T07:26:04.345Z,2636.00
2022-09-15T07:27:04.382Z,2688.00
2022-09-15T07:28:04.047Z,2748.00
2022-09-15T07:29:04.183Z,2820.00
2022-09-15T07:30:04.226Z,2900.00
2022-09-15T07:31:04.095Z,2940.00
2022-09-15T07:32:04.218Z,2956.00
2022-09-15T07:33:03.900Z,2944.00
2022-09-15T07:34:05.096Z,2924.00
2022-09-15T07:35:03.943Z,2868.00
2022-09-15T07:36:04.107Z,2808.00
2022-09-15T07:37:04.277Z,2772.00
2022-09-15T07:38:04.679Z,2708.00
2022-09-15T07:39:03.976Z,2684.00
2022-09-15T07:40:03.878Z,2664.00
2022-09-15T07:41:04.059Z,2600.00
2022-09-15T07:42:03.952Z,2512.00
2022-09-15T07:43:04.020Z,2428.00
2022-09-15T07:44:03.970Z,2404.00
2022-09-15T07:45:04.082Z,2476.00
2022-09-15T07:46:04.211Z,2588.00
2022-09-15T07:47:03.810Z,2648.00
2022-09-15T07:48:03.830Z,2700.00
2022-09-15T07:49:03.837Z,2884.00
2022-09-15T07:50:03.758Z,3116.00
2022-09-15T07:51:03.820Z,3236.00
2022-09-15T07:52:03.730Z,3432.00
2022-09-15T07:53:03.968Z,3588.00
2022-09-15T07:54:03.815Z,3616.00
2022-09-15T07:55:03.896Z,3648.00
2022-09-15T07:56:03.759Z,3704.00
2022-09-15T07:57:04.541Z,3824.00
2022-09-15T07:58:03.582Z,3992.00
2022-09-15T07:59:03.545Z,4208.00
2022-09-15T08:00:03.611Z,4344.00
2022-09-15T08:01:03.670Z,4376.00
2022-09-15T08:02:03.819Z,4280.00
2022-09-15T08:03:03.625Z,4248.00
2022-09-15T08:04:04.470Z,3988.00
2022-09-15T08:05:03.816Z,3960.00
2022-09-15T08:06:03.662Z,3920.00
2022-09-15T08:07:03.679Z,3980.00
2022-09-15T08:08:03.447Z,3996.00
2022-09-15T08:09:03.876Z,4048.00
2022-09-15T08:10:03.516Z,4116.00
2022-09-15T08:11:03.586Z,4116.00
2022-09-15T08:12:03.513Z,4192.00
2022-09-15T08:13:04.124Z,4344.00
2022-09-15T08:14:03.392Z,4496.00
2022-09-15T08:15:03.754Z,4372.00
2022-09-15T08:16:03.372Z,4332.00
2022-09-15T08:17:11.239Z,4360.00
2022-09-15T08:18:04.376Z,4396.00
2022-09-15T08:19:03.467Z,4488.00
2022-09-15T08:20:03.368Z,4676.00
2022-09-15T08:21:03.389Z,4564.00
2022-09-15T08:22:03.329Z,4460.00
2022-09-15T08:23:03.241Z,3980.00
2022-09-15T08:24:03.352Z,3796.00
2022-09-15T08:25:04.200Z,3700.00
2022-09-15T08:26:03.287Z,3648.00
2022-09-15T08:27:03.345Z,3676.00
2022-09-15T08:28:03.224Z,3736.00
2022-09-15T08:29:03.247Z,3832.00
2022-09-15T08:30:03.252Z,3988.00
2022-09-15T08:31:03.458Z,4256.00
2022-09-15T08:32:03.175Z,4784.00
2022-09-15T08:33:03.199Z,4772.00
2022-09-15T08:34:04.089Z,5012.00
2022-09-15T08:35:03.163Z,5584.00
2022-09-15T08:36:04.283Z,5712.00
2022-09-15T08:37:03.150Z,5704.00
2022-09-15T08:38:03.163Z,5384.00
2022-09-15T08:39:03.177Z,5336.00
2022-09-15T08:40:03.203Z,5620.00
2022-09-15T08:41:03.196Z,5076.00
2022-09-15T08:42:03.066Z,4836.00
2022-09-15T08:43:03.097Z,4884.00
2022-09-15T08:44:03.096Z,4788.00
2022-09-15T08:45:03.076Z,4584.00
2022-09-15T08:46:03.271Z,4312.00
2022-09-15T08:47:03.074Z,4136.00
2022-09-15T08:48:03.050Z,4036.00
2022-09-15T08:49:03.299Z,3948.00
2022-09-15T08:50:04.127Z,3812.00
2022-09-15T08:51:03.056Z,3644.00
2022-09-15T08:52:02.998Z,3536.00
2022-09-15T08:53:03.761Z,3416.00
2022-09-15T08:54:02.992Z,3288.00
2022-09-15T08:55:02.955Z,3188.00
2022-09-15T08:56:04.633Z,3008.00
2022-09-15T08:57:03.039Z,2728.00
2022-09-15T08:58:02.958Z,2412.00
2022-09-15T08:59:02.901Z,2188.00
2022-09-15T09:00:03.766Z,2116.00
2022-09-15T09:01:02.877Z,2168.00
2022-09-15T09:02:03.006Z,2148.00
2022-09-15T09:03:02.995Z,2032.00
2022-09-15T09:04:02.887Z,2040.00
2022-09-15T09:05:02.866Z,2064.00
2022-09-15T09:06:02.869Z,2008.00
2022-09-15T09:07:02.870Z,2116.00
2022-09-15T09:08:02.858Z,2136.00
2022-09-15T09:09:02.854Z,1972.00
2022-09-15T09:10:02.824Z,1684.00
2022-09-15T09:11:02.844Z,1476.00
2022-09-15T09:12:02.781Z,1592.00
2022-09-15T09:13:02.796Z,1880.00
2022-09-15T09:14:02.776Z,2060.00
2022-09-15T09:15:02.845Z,2204.00
2022-09-15T09:16:02.848Z,2324.00
2022-09-15T09:17:02.710Z,2152.00
2022-09-15T09:18:02.900Z,1888.00
2022-09-15T09:19:02.691Z,1724.00
2022-09-15T09:20:02.735Z,1624.00
2022-09-15T09:21:02.711Z,1636.00
2022-09-15T09:22:02.744Z,1612.00
2022-09-15T09:23:02.666Z,1612.00
2022-09-15T09:24:02.731Z,1588.00
2022-09-15T09:25:08.559Z,1640.00
2022-09-15T09:26:08.625Z,1772.00
2022-09-15T09:27:03.710Z,1984.00
2022-09-15T09:28:02.642Z,2296.00
2022-09-15T09:29:02.637Z,2716.00
2022-09-15T09:30:03.037Z,3176.00
2022-09-15T09:31:02.848Z,3584.00
2022-09-15T09:32:02.666Z,3916.00
2022-09-15T09:33:02.566Z,4320.00
2022-09-15T09:34:02.541Z,4560.00
2022-09-15T09:35:02.585Z,4788.00
2022-09-15T09:36:02.601Z,5104.00
2022-09-15T09:37:02.704Z,5396.00
2022-09-15T09:38:02.535Z,5708.00
2022-09-15T09:39:02.542Z,5900.00
2022-09-15T09:40:02.670Z,6072.00
2022-09-15T09:41:02.892Z,6076.00
2022-09-15T09:42:02.529Z,6044.00
2022-09-15T09:43:02.474Z,6152.00
2022-09-15T09:44:02.653Z,6296.00
2022-09-15T09:45:02.501Z,6432.00
2022-09-15T09:46:02.737Z,6468.00
2022-09-15T09:47:02.529Z,6344.00
2022-09-15T09:48:02.527Z,5936.00
2022-09-15T09:49:02.486Z,5404.00
2022-09-15T09:50:02.456Z,4676.00
2022-09-15T09:51:02.519Z,4104.00
2022-09-15T09:52:02.399Z,4076.00
2022-09-15T09:53:03.299Z,4304.00
2022-09-15T09:54:02.357Z,4720.00
2022-09-15T09:55:02.383Z,5176.00
2022-09-15T09:56:02.446Z,5028.00
2022-09-15T09:57:02.366Z,5040.00
2022-09-15T09:58:02.418Z,5060.00
2022-09-15T09:59:02.343Z,5216.00
2022-09-15T10:00:02.391Z,6824.00
2022-09-15T10:01:02.353Z,6964.00
2022-09-15T10:02:02.641Z,5080.00
2022-09-15T10:03:02.265Z,4664.00
2022-09-15T10:04:02.264Z,4464.00
2022-09-15T10:05:02.288Z,4280.00
2022-09-15T10:06:02.373Z,4428.00
2022-09-15T10:07:02.244Z,4488.00
2022-09-15T10:08:02.341Z,4512.00
2022-09-15T10:09:03.104Z,4492.00
2022-09-15T10:10:02.230Z,4396.00
2022-09-15T10:11:02.268Z,4640.00
2022-09-15T10:12:02.217Z,5100.00
2022-09-15T10:13:02.157Z,5512.00
2022-09-15T10:14:03.287Z,5908.00
2022-09-15T10:15:02.182Z,6044.00
2022-09-15T10:16:03.698Z,5820.00
2022-09-15T10:17:02.144Z,6020.00
2022-09-15T10:18:02.293Z,6376.00
2022-09-15T10:19:02.256Z,6720.00
2022-09-15T10:20:02.170Z,7064.00
2022-09-15T10:21:02.238Z,7124.00
2022-09-15T10:22:02.168Z,6868.00
2022-09-15T10:23:02.133Z,6720.00
2022-09-15T10:24:02.106Z,6520.00
2022-09-15T10:25:02.232Z,5620.00
2022-09-15T10:26:02.325Z,5132.00
2022-09-15T10:27:02.078Z,5000.00
2022-09-15T10:28:02.088Z,5348.00
2022-09-15T10:29:02.143Z,6020.00
2022-09-15T10:30:02.072Z,6696.00
2022-09-15T10:31:02.178Z,7036.00
2022-09-15T10:32:02.108Z,7056.00
2022-09-15T10:33:01.985Z,6184.00
2022-09-15T10:34:01.966Z,5252.00
2022-09-15T10:35:01.999Z,4440.00
2022-09-15T10:36:01.949Z,3980.00
2022-09-15T10:37:02.383Z,3792.00
2022-09-15T10:38:01.975Z,3788.00
2022-09-15T10:39:01.957Z,3852.00
2022-09-15T10:40:01.959Z,3912.00
2022-09-15T10:41:01.947Z,4048.00
2022-09-15T10:42:01.965Z,4352.00
2022-09-15T10:43:01.899Z,4944.00
2022-09-15T10:44:01.937Z,6040.00
2022-09-15T10:45:01.922Z,6924.00
2022-09-15T10:46:01.956Z,6752.00
2022-09-15T10:47:01.891Z,6620.00
2022-09-15T10:48:01.923Z,5884.00
2022-09-15T10:49:01.894Z,5160.00
2022-09-15T10:50:01.835Z,5372.00
2022-09-15T10:51:01.779Z,5920.00
2022-09-15T10:52:01.839Z,6648.00
2022-09-15T10:53:02.587Z,7408.00
2022-09-15T10:54:01.766Z,7836.00
2022-09-15T10:55:01.752Z,7964.00
2022-09-15T10:56:01.758Z,8092.00
2022-09-15T10:57:01.775Z,8068.00
2022-09-15T10:58:02.784Z,8112.00
2022-09-15T10:59:01.738Z,7644.00
2022-09-15T11:00:01.788Z,7388.00
2022-09-15T11:01:01.788Z,7556.00
2022-09-15T11:02:02.003Z,7604.00
2022-09-15T11:03:01.709Z,7580.00
2022-09-15T11:04:01.679Z,7604.00
2022-09-15T11:05:01.850Z,7812.00
2022-09-15T11:06:01.670Z,8296.00
2022-09-15T11:07:01.862Z,7628.00
2022-09-15T11:08:01.643Z,7132.00
2022-09-15T11:09:01.862Z,6532.00
2022-09-15T11:10:01.637Z,6204.00
2022-09-15T11:11:01.603Z,6356.00
2022-09-15T11:12:01.806Z,6148.00
2022-09-15T11:13:01.613Z,5880.00
2022-09-15T11:14:01.697Z,5900.00
2022-09-15T11:15:01.680Z,9104.00
2022-09-15T11:16:01.615Z,8500.00
2022-09-15T11:17:01.647Z,8680.00
2022-09-15T11:18:01.548Z,7908.00
2022-09-15T11:19:01.575Z,7068.00
2022-09-15T11:20:01.524Z,7212.00
2022-09-15T11:21:02.331Z,7044.00
2022-09-15T11:22:01.599Z,6020.00
2022-09-15T11:23:01.654Z,6348.00
2022-09-15T11:24:01.608Z,6260.00
2022-09-15T11:25:01.475Z,5788.00
2022-09-15T11:26:01.499Z,6524.00
2022-09-15T11:27:01.542Z,8920.00
2022-09-15T11:28:02.297Z,9076.00
2022-09-15T11:29:01.418Z,8856.00
2022-09-15T11:30:02.054Z,8928.00
2022-09-15T11:31:01.450Z,8616.00
2022-09-15T11:33:01.425Z,5484.00
2022-09-15T11:34:01.451Z,8968.00
2022-09-15T11:35:02.041Z,9308.00
2022-09-15T11:36:01.454Z,9956.00
2022-09-15T11:37:01.538Z,7224.00
2022-09-15T11:38:01.531Z,6004.00
2022-09-15T11:39:01.453Z,6648.00
2022-09-15T11:40:01.428Z,8948.00
2022-09-15T11:41:01.557Z,9288.00
2022-09-15T11:42:02.210Z,9844.00
2022-09-15T11:43:01.244Z,10644.00
2022-09-15T11:44:01.295Z,10292.00
2022-09-15T11:45:01.296Z,8968.00
2022-09-15T11:46:02.187Z,8772.00
2022-09-15T11:47:01.453Z,9728.00
2022-09-15T11:48:01.219Z,9044.00
2022-09-15T11:49:01.855Z,9284.00
2022-09-15T11:50:01.494Z,9548.00
2022-09-15T11:51:01.399Z,9312.00
2022-09-15T11:52:01.619Z,9136.00
2022-09-15T11:53:01.306Z,8744.00
2022-09-15T11:54:01.178Z,8028.00
2022-09-15T11:55:01.234Z,7164.00
2022-09-15T11:56:01.785Z,6472.00
2022-09-15T11:57:01.230Z,5816.00
2022-09-15T11:58:01.249Z,5072.00
2022-09-15T11:59:01.176Z,4292.00
2022-09-15T12:00:01.308Z,3908.00
2022-09-15T12:01:01.141Z,3864.00
2022-09-15T12:02:01.141Z,3948.00
2022-09-15T12:03:01.139Z,4060.00
2022-09-15T12:04:01.227Z,4048.00
2022-09-15T12:05:01.966Z,4148.00
2022-09-15T12:06:01.110Z,4344.00
2022-09-15T12:07:01.252Z,4280.00
2022-09-15T12:08:00.999Z,3760.00
2022-09-15T12:09:01.020Z,3568.00
2022-09-15T12:10:01.031Z,3716.00
2022-09-15T12:11:01.198Z,4032.00
2022-09-15T12:12:01.828Z,4376.00
2022-09-15T12:13:01.085Z,4320.00
2022-09-15T12:14:01.135Z,4324.00
2022-09-15T12:15:00.977Z,4104.00
2022-09-15T12:16:01.038Z,4128.00
2022-09-15T12:17:01.001Z,4300.00
2022-09-15T12:18:06.424Z,4560.00
2022-09-15T12:19:01.990Z,4928.00
2022-09-15T12:20:00.913Z,5140.00
2022-09-15T12:21:01.098Z,5348.00
2022-09-15T12:22:00.943Z,5716.00
2022-09-15T12:23:00.952Z,6292.00
2022-09-15T12:24:01.089Z,7048.00
2022-09-15T12:25:01.410Z,7288.00
2022-09-15T12:26:01.897Z,7108.00
2022-09-15T12:27:00.931Z,7020.00
2022-09-15T12:28:01.517Z,6640.00
2022-09-15T12:29:00.926Z,6568.00
2022-09-15T12:30:00.963Z,6592.00
2022-09-15T12:31:00.856Z,6464.00
2022-09-15T12:32:00.872Z,6576.00
2022-09-15T12:33:01.882Z,6568.00
2022-09-15T12:34:00.810Z,6240.00
2022-09-15T12:35:00.800Z,5704.00
2022-09-15T12:36:00.745Z,5052.00
2022-09-15T12:38:00.804Z,4404.00
2022-09-15T12:39:00.821Z,4572.00
2022-09-15T12:40:00.785Z,5080.00
2022-09-15T12:41:00.730Z,5492.00
2022-09-15T12:42:00.655Z,5588.00
2022-09-15T12:43:00.688Z,5628.00
2022-09-15T12:44:00.714Z,5692.00
2022-09-15T12:45:00.730Z,5568.00
2022-09-15T12:46:00.814Z,4720.00
2022-09-15T12:47:00.677Z,3884.00
2022-09-15T12:48:00.667Z,3408.00
2022-09-15T12:49:00.783Z,3316.00
2022-09-15T12:50:00.604Z,3096.00
2022-09-15T12:51:00.598Z,2996.00
2022-09-15T12:52:01.198Z,2600.00
2022-09-15T12:53:00.666Z,2212.00
2022-09-15T12:54:00.542Z,1940.00
2022-09-15T12:55:00.550Z,1796.00
2022-09-15T12:56:00.619Z,1696.00
2022-09-15T12:57:00.570Z,1676.00
2022-09-15T12:58:00.540Z,1596.00
2022-09-15T12:59:04.576Z,1596.00
2022-09-15T13:00:01.551Z,1696.00
2022-09-15T13:01:17.683Z,1716.00
2022-09-15T13:02:02.527Z,1804.00
2022-09-15T13:03:00.671Z,1964.00
2022-09-15T13:04:00.480Z,1864.00
2022-09-15T13:05:01.477Z,1784.00
2022-09-15T13:06:00.464Z,1812.00
2022-09-15T13:07:00.571Z,1776.00
2022-09-15T13:08:00.368Z,1636.00
2022-09-15T13:09:00.346Z,1464.00
2022-09-15T13:10:00.420Z,1408.00
2022-09-15T13:11:00.485Z,1364.00
2022-09-15T13:12:00.446Z,1356.00
2022-09-15T13:13:00.361Z,1440.00
2022-09-15T13:14:00.394Z,1568.00
2022-09-15T13:15:00.432Z,1752.00
2022-09-15T13:16:00.395Z,1976.00
2022-09-15T13:17:00.367Z,2228.00
2022-09-15T13:18:00.405Z,2520.00
2022-09-15T13:19:00.374Z,2792.00
2022-09-15T13:20:00.276Z,3112.00
2022-09-15T13:21:00.290Z,3476.00
2022-09-15T13:22:00.395Z,3900.00
2022-09-15T13:23:00.293Z,4340.00
2022-09-15T13:24:00.334Z,4672.00
2022-09-15T13:25:01.578Z,4828.00
2022-09-15T13:26:01.314Z,5040.00
2022-09-15T13:27:00.242Z,5216.00
2022-09-15T13:28:00.528Z,5332.00
2022-09-15T13:29:00.224Z,5408.00
2022-09-15T13:30:00.211Z,5352.00
2022-09-15T13:31:00.351Z,5356.00
2022-09-15T13:32:00.197Z,5480.00
2022-09-15T13:33:00.142Z,5412.00
2022-09-15T13:35:08.303Z,5292.00
2022-09-15T13:36:01.134Z,5264.00
2022-09-15T13:38:06.892Z,5200.00
2022-09-15T13:39:02.192Z,5180.00
2022-09-15T13:40:00.266Z,5188.00
2022-09-15T13:41:00.077Z,5292.00
2022-09-15T13:42:00.174Z,5328.00
2022-09-15T13:43:00.050Z,5196.00
2022-09-15T13:44:00.144Z,5088.00
2022-09-15T13:45:00.082Z,5048.00
2022-09-15T13:46:00.099Z,5064.00
2022-09-15T13:47:00.153Z,4968.00
2022-09-15T13:48:00.099Z,4876.00
2022-09-15T13:49:00.066Z,5120.00
2022-09-15T13:50:00.014Z,5568.00
2022-09-15T13:50:59.986Z,5604.00
2022-09-15T13:52:00.035Z,5552.00
2022-09-15T13:53:00.033Z,5588.00
2022-09-15T13:54:00.728Z,5972.00
2022-09-15T13:54:59.933Z,5632.00
2022-09-15T13:56:00.076Z,5792.00
2022-09-15T13:56:59.940Z,6148.00
2022-09-15T13:59:13.716Z,5584.00
2022-09-15T14:00:01.897Z,5952.00
2022-09-15T14:00:59.959Z,6304.00
2022-09-15T14:02:00.020Z,6252.00
2022-09-15T14:02:59.846Z,6176.00
2022-09-15T14:03:59.869Z,7256.00
2022-09-15T14:04:59.885Z,6712.00
2022-09-15T14:05:59.839Z,6896.00
2022-09-15T14:07:01.090Z,7148.00
2022-09-15T14:08:01.495Z,7412.00
2022-09-15T14:08:59.796Z,7416.00
2022-09-15T14:09:59.921Z,7320.00
2022-09-15T14:10:59.789Z,7300.00
2022-09-15T14:11:59.792Z,7680.00
2022-09-15T14:12:59.781Z,7852.00
2022-09-15T14:13:59.826Z,8176.00
2022-09-15T14:14:59.749Z,8176.00
2022-09-15T14:15:59.774Z,7832.00
2022-09-15T14:16:59.931Z,7384.00
2022-09-15T14:17:59.775Z,7304.00
2022-09-15T14:18:59.708Z,7160.00
2022-09-15T14:19:59.771Z,7016.00
2022-09-15T14:20:59.934Z,7108.00
2022-09-15T14:21:59.656Z,6892.00
2022-09-15T14:22:59.672Z,6500.00
2022-09-15T14:24:00.329Z,6472.00
2022-09-15T14:24:59.682Z,7312.00
2022-09-15T14:25:59.676Z,7344.00
2022-09-15T14:26:59.676Z,10288.00
2022-09-15T14:27:59.699Z,6728.00
2022-09-15T14:28:59.554Z,7852.00
2022-09-15T14:29:59.631Z,9188.00
2022-09-15T14:30:59.670Z,7988.00
2022-09-15T14:31:59.792Z,6984.00
2022-09-15T14:33:00.651Z,7680.00
2022-09-15T14:34:00.586Z,7756.00
2022-09-15T14:35:00.137Z,7996.00
2022-09-15T14:35:59.545Z,7108.00
2022-09-15T14:36:59.629Z,8344.00
2022-09-15T14:37:59.454Z,7880.00
2022-09-15T14:38:59.491Z,7452.00
2022-09-15T14:40:00.401Z,15104.00
2022-09-15T14:40:59.533Z,17152.00
2022-09-15T14:43:00.454Z,11492.00
2022-09-15T14:43:59.452Z,9532.00
2022-09-15T14:46:06.942Z,8388.00
2022-09-15T14:47:01.442Z,7932.00
2022-09-15T14:47:59.518Z,7728.00
2022-09-15T14:48:59.527Z,7792.00
2022-09-15T14:49:59.363Z,7600.00
2022-09-15T14:50:59.408Z,7144.00
2022-09-15T14:51:59.465Z,7324.00
2022-09-15T14:52:59.330Z,6996.00
2022-09-15T14:53:59.365Z,6540.00
2022-09-15T14:54:59.317Z,6204.00
2022-09-15T14:56:01.269Z,5384.00
2022-09-15T14:56:59.371Z,4352.00
2022-09-15T14:57:59.344Z,3460.00
2022-09-15T14:58:59.287Z,2944.00
2022-09-15T14:59:59.398Z,2696.00
2022-09-15T15:00:59.477Z,2148.00
2022-09-15T15:01:59.352Z,1944.00
2022-09-15T15:02:59.295Z,1760.00
2022-09-15T15:03:59.279Z,1624.00
2022-09-15T15:04:59.330Z,1648.00
2022-09-15T15:06:02.625Z,1780.00
2022-09-15T15:06:59.196Z,1888.00
2022-09-15T15:07:59.211Z,1856.00
2022-09-15T15:08:59.194Z,1880.00
2022-09-15T15:09:59.255Z,1872.00
2022-09-15T15:10:59.129Z,1888.00